Cape Cod — WBK3243 — position and weather

sailwx.info

Track history (hours):
 
Tides and Currents Weather Stations Pressure Air Temp Water Temp Dewpoint Dewpoint Depression Visibility Wind Speed Wind Dir Waves Ship Positions

Cape Cod

Owner: MORAN TOWING CORPORATION, New Canaan, CT. More information available from US FCC via Universal Licensing System and Coast Guard Vessel Documentation Center.

Last reported at 2015-Jul-31 02:34 UTC. Time now 2015-Jul-31 03:06 UTC.
Position N 39°54' W 075°08'.

Length 33 m; draft 4.8 m.

Type: Tug. MMSI: 366939770.

Date/timePositionNaut miles runAvg speedWind from/ knotsBaromVisibWave heightAir tempDewpointWater temp
2015-Jul-31 02:34N 39°54' W 075°08'2 2.0
2015-Jul-31 01:34N 39°53' W 075°10'0 0.2
2015-Jul-31 00:34N 39°53' W 075°11'0 0.0
2015-Jul-30 23:34N 39°53' W 075°11'0 0.0
2015-Jul-30 22:34N 39°53' W 075°11'0 0.0
2015-Jul-30 21:34N 39°53' W 075°11'0 0.0
2015-Jul-30 20:34N 39°53' W 075°11'0 0.0
2015-Jul-30 19:33N 39°53' W 075°11'0 0.0
2015-Jul-30 18:33N 39°53' W 075°11'0 0.0
2015-Jul-30 17:33N 39°53' W 075°11'0 0.0
2015-Jul-30 16:33N 39°53' W 075°11'0 0.0
2015-Jul-30 15:33N 39°53' W 075°11'1 0.8
2015-Jul-30 14:34N 39°54' W 075°11'0 0.0
2015-Jul-30 13:34N 39°54' W 075°11'0 0.0
2015-Jul-30 12:34N 39°54' W 075°12'1 0.8
2015-Jul-30 11:34N 39°53' W 075°11'0 0.0
2015-Jul-30 10:34N 39°53' W 075°11'0 0.0
2015-Jul-30 09:34N 39°53' W 075°11'0 0.0
2015-Jul-30 08:34N 39°53' W 075°11'0 0.0
2015-Jul-30 07:33N 39°53' W 075°11'0 0.0
2015-Jul-30 06:34N 39°53' W 075°11'0 0.0
2015-Jul-30 05:34N 39°53' W 075°11'1 1.0
2015-Jul-30 04:34N 39°53' W 075°09'2 1.6
2015-Jul-30 03:34N 39°53' W 075°11'1 0.7
2015-Jul-30 02:34N 39°53' W 075°11'0 0.0
2015-Jul-30 01:34N 39°53' W 075°11'2 2.4
2015-Jul-30 00:33N 39°54' W 075°08'2 2.4
2015-Jul-29 23:34N 39°53' W 075°11'0 0.0
2015-Jul-29 22:34N 39°53' W 075°11'0 0.0
2015-Jul-29 21:34N 39°53' W 075°11'0 0.0
2015-Jul-29 20:34N 39°53' W 075°11'0 0.0
2015-Jul-29 19:34N 39°53' W 075°11'0 0.0
2015-Jul-29 18:34N 39°53' W 075°11'2 2.2
2015-Jul-29 17:33N 39°54' W 075°08'4 4.2
2015-Jul-29 16:34N 39°58' W 075°07'3 3.4
2015-Jul-29 15:34N 39°55' W 075°08'10 9.8
2015-Jul-29 14:34N 39°51' W 075°20'1111.1
2015-Jul-29 13:33N 39°44' W 075°30'1010.2
2015-Jul-29 12:34N 39°33' W 075°33'1010.0
2015-Jul-29 11:34N 39°24' W 075°29'3210.4
2015-Jul-29 08:28N 38°57' W 075°06'6 6.5
2015-Jul-29 07:33N 39°02' W 075°10'1414.3
2015-Jul-29 06:33N 39°15' W 075°19'1615.9
2015-Jul-29 05:33N 39°27' W 075°33'1313.5
2015-Jul-29 04:33N 39°40' W 075°32'1211.8
2015-Jul-29 03:33N 39°49' W 075°23'1010.1
2015-Jul-29 02:33N 39°53' W 075°11'0 0.0
2015-Jul-29 01:33N 39°53' W 075°11'0 0.0
2015-Jul-29 00:33N 39°53' W 075°11'0 0.0
2015-Jul-28 23:33N 39°53' W 075°11'0 0.3
2015-Jul-28 22:33N 39°53' W 075°11'0 0.3
2015-Jul-28 21:33N 39°53' W 075°11'0 0.0
2015-Jul-28 20:33N 39°53' W 075°11'0 0.0
2015-Jul-28 19:33N 39°53' W 075°11'0 0.0
2015-Jul-28 18:33N 39°53' W 075°11'0 0.0
2015-Jul-28 17:33N 39°53' W 075°11'0 0.0
2015-Jul-28 16:33N 39°53' W 075°11'0 0.0
2015-Jul-28 15:33N 39°53' W 075°11'0 0.0
2015-Jul-28 14:33N 39°53' W 075°11'0 0.0
2015-Jul-28 13:33N 39°53' W 075°11'0 0.0
2015-Jul-28 12:33N 39°53' W 075°11'0 0.2
2015-Jul-28 11:33N 39°53' W 075°11'0 0.2
2015-Jul-28 10:33N 39°53' W 075°11'0 0.0
2015-Jul-28 09:33N 39°53' W 075°11'2 1.8
2015-Jul-28 08:33N 39°52' W 075°13'4 3.5
2015-Jul-28 07:33N 39°53' W 075°08'2 1.8
2015-Jul-28 06:33N 39°53' W 075°11'0 0.0
2015-Jul-28 05:33N 39°53' W 075°11'0 0.0
2015-Jul-28 04:33N 39°53' W 075°11'0 0.0
2015-Jul-28 03:33N 39°53' W 075°11'0 0.0
2015-Jul-28 02:33N 39°53' W 075°11'0 0.0
2015-Jul-28 01:33N 39°53' W 075°11'0 0.0
2015-Jul-28 00:33N 39°53' W 075°11'0 0.0
2015-Jul-27 23:33N 39°53' W 075°11'0 0.0
2015-Jul-27 22:33N 39°53' W 075°11'0 0.0
2015-Jul-27 21:33N 39°53' W 075°11'0 0.0
2015-Jul-27 20:33N 39°53' W 075°11'0 0.0
2015-Jul-27 19:33N 39°53' W 075°11'0 0.0
2015-Jul-27 18:33N 39°53' W 075°11'0 0.0
2015-Jul-27 17:33N 39°53' W 075°11'0 0.0
2015-Jul-27 16:33N 39°53' W 075°11'0 0.0
2015-Jul-27 15:33N 39°53' W 075°11'0 0.0
2015-Jul-27 14:33N 39°53' W 075°11'0 0.0
2015-Jul-27 13:33N 39°53' W 075°11'1 0.8
2015-Jul-27 12:33N 39°54' W 075°12'1 0.8
2015-Jul-27 11:33N 39°53' W 075°11'0 0.0
2015-Jul-27 10:33N 39°53' W 075°11'3 3.3
2015-Jul-27 09:33N 39°51' W 075°14'1110.6
2015-Jul-27 08:33N 39°47' W 075°27'1111.4
2015-Jul-27 07:33N 39°38' W 075°35'1111.1
2015-Jul-27 06:33N 39°27' W 075°33'1111.1
2015-Jul-27 05:33N 39°18' W 075°23'1111.3
2015-Jul-27 04:33N 39°09' W 075°15'4 3.6
2015-Jul-27 03:31N 39°06' W 075°12'1110.9
2015-Jul-27 02:33N 39°15' W 075°19'1010.3
2015-Jul-27 01:33N 39°23' W 075°28'8 8.3
2015-Jul-27 00:33N 39°30' W 075°34'8 7.5
2015-Jul-26 23:33N 39°37' W 075°35'7 7.3
2015-Jul-26 22:33N 39°44' W 075°30'7 7.5
2015-Jul-26 21:33N 39°49' W 075°23'8 8.4
2015-Jul-26 20:33N 39°52' W 075°13'8 8.3
2015-Jul-26 19:33N 39°58' W 075°06'0 0.4
2015-Jul-26 18:33N 39°58' W 075°07'2 2.3
2015-Jul-26 17:33N 39°56' W 075°08'3 3.5
2015-Jul-26 16:33N 39°53' W 075°11'0 0.0
2015-Jul-26 15:33N 39°53' W 075°11'0 0.0
2015-Jul-26 14:33N 39°53' W 075°11'0 0.0
2015-Jul-26 13:33N 39°53' W 075°11'0 0.0
2015-Jul-26 12:33N 39°53' W 075°11'0 0.0
2015-Jul-26 11:33N 39°53' W 075°11'0 0.0
2015-Jul-26 10:33N 39°53' W 075°11'0 0.0
2015-Jul-26 09:33N 39°53' W 075°11'0 0.0
2015-Jul-26 08:33N 39°53' W 075°11'0 0.0
2015-Jul-26 07:33N 39°53' W 075°11'0 0.0
2015-Jul-26 06:33N 39°53' W 075°11'0 0.0
2015-Jul-26 05:33N 39°53' W 075°11'8 7.8
2015-Jul-26 04:33N 39°51' W 075°20'4 4.4
2015-Jul-26 03:33N 39°48' W 075°25'4 4.2
2015-Jul-26 02:33N 39°51' W 075°21'8 8.0
2015-Jul-26 01:33N 39°53' W 075°11'0 0.0
2015-Jul-26 00:33N 39°53' W 075°11'0 0.0
2015-Jul-25 23:33N 39°53' W 075°11'0 0.0
2015-Jul-25 22:33N 39°53' W 075°11'1 1.3
2015-Jul-25 21:33N 39°53' W 075°09'5 5.3
2015-Jul-25 20:33N 39°58' W 075°07'3 2.5
2015-Jul-25 19:33N 39°56' W 075°08'7 6.7
2015-Jul-25 18:33N 39°51' W 075°15'7 7.4
2015-Jul-25 17:33N 39°49' W 075°24'7 7.4
2015-Jul-25 16:33N 39°43' W 075°30'7 7.2
2015-Jul-25 15:33N 39°37' W 075°35'7 6.8
2015-Jul-25 14:33N 39°30' W 075°33'7 6.8
2015-Jul-25 13:33N 39°24' W 075°30'8 7.6
2015-Jul-25 12:32N 39°18' W 075°23'8 8.3
2015-Jul-25 11:32N 39°12' W 075°17'18 8.8
2015-Jul-25 09:32N 38°56' W 075°06'8 7.8
2015-Jul-25 08:33N 39°03' W 075°10'1312.6
2015-Jul-25 07:33N 39°14' W 075°18'1312.6
2015-Jul-25 06:33N 39°23' W 075°29'1312.7
2015-Jul-25 05:33N 39°36' W 075°34'1413.9
2015-Jul-25 04:33N 39°48' W 075°26'1312.6
2015-Jul-25 03:33N 39°53' W 075°11'0 0.0
2015-Jul-25 02:33N 39°53' W 075°11'2 2.1
2015-Jul-25 01:33N 39°54' W 075°08'0 0.4
2015-Jul-25 00:34N 39°54' W 075°08'2 1.9
2015-Jul-24 23:34N 39°56' W 075°08'7 7.3
2015-Jul-24 22:33N 39°51' W 075°15'1 0.6
2015-Jul-24 21:33N 39°51' W 075°16'5 4.6
2015-Jul-24 20:33N 39°53' W 075°11'0 0.0
2015-Jul-24 19:33N 39°53' W 075°11'0 0.0
2015-Jul-24 18:33N 39°53' W 075°11'0 0.0
2015-Jul-24 17:33N 39°53' W 075°11'0 0.0
2015-Jul-24 16:33N 39°53' W 075°11'0 0.0
2015-Jul-24 15:33N 39°53' W 075°11'0 0.0
2015-Jul-24 14:33N 39°53' W 075°11'3 3.2
2015-Jul-24 13:33N 39°56' W 075°08'2 1.7
2015-Jul-24 12:33N 39°54' W 075°08'2 2.2
2015-Jul-24 11:33N 39°53' W 075°11'0 0.0
2015-Jul-24 10:33N 39°53' W 075°11'0 0.0
2015-Jul-24 09:33N 39°53' W 075°11'0 0.0
2015-Jul-24 08:33N 39°53' W 075°11'0 0.0
2015-Jul-24 07:33N 39°53' W 075°11'0 0.0
2015-Jul-24 06:33N 39°53' W 075°11'0 0.0
2015-Jul-24 05:33N 39°53' W 075°11'0 0.0
2015-Jul-24 04:33N 39°53' W 075°11'0 0.0
2015-Jul-24 03:33N 39°53' W 075°11'3 2.7
2015-Jul-24 02:33N 39°55' W 075°08'0 0.0
2015-Jul-24 01:33N 39°55' W 075°08'0 0.0
2015-Jul-24 00:33N 39°55' W 075°08'0 0.0
2015-Jul-23 23:34N 39°55' W 075°08'1 0.9
2015-Jul-23 22:34N 39°54' W 075°08'2 2.3
2015-Jul-23 21:33N 39°53' W 075°11'0 0.2
2015-Jul-23 20:33N 39°53' W 075°11'0 0.0
2015-Jul-23 19:33N 39°53' W 075°11'4 4.4
2015-Jul-23 18:33N 39°51' W 075°16'1211.8
2015-Jul-23 17:33N 39°45' W 075°29'1211.6
2015-Jul-23 16:33N 39°34' W 075°33'1111.4
2015-Jul-23 15:33N 39°23' W 075°29'1212.3
2015-Jul-23 14:33N 39°14' W 075°18'5 5.5
2015-Jul-23 13:33N 39°09' W 075°15'1111.4
2015-Jul-23 12:33N 39°18' W 075°23'1111.4
2015-Jul-23 11:33N 39°27' W 075°33'1010.2
2015-Jul-23 10:33N 39°37' W 075°35'9 9.0
2015-Jul-23 09:33N 39°45' W 075°29'8 8.1
2015-Jul-23 08:33N 39°50' W 075°21'8 7.8
2015-Jul-23 07:33N 39°53' W 075°12'7 6.8
2015-Jul-23 06:33N 39°58' W 075°07'1 0.7
2015-Jul-23 05:33N 39°59' W 075°06'0 0.0
2015-Jul-23 04:33N 39°59' W 075°06'0 0.0
2015-Jul-23 03:33N 39°59' W 075°06'0 0.0
2015-Jul-23 02:33N 39°59' W 075°06'0 0.0
2015-Jul-23 01:33N 39°59' W 075°06'5 4.6
2015-Jul-23 00:33N 39°54' W 075°08'2 2.0
2015-Jul-22 23:33N 39°53' W 075°10'2 2.0
2015-Jul-22 22:33N 39°54' W 075°12'0 0.0
2015-Jul-22 21:33N 39°54' W 075°12'6 5.9
2015-Jul-22 20:34N 39°51' W 075°19'6 5.5
2015-Jul-22 19:33N 39°48' W 075°25'0 0.5
2015-Jul-22 18:33N 39°48' W 075°26'0 0.0
2015-Jul-22 17:33N 39°48' W 075°26'0 0.0
2015-Jul-22 16:33N 39°48' W 075°26'0 0.0
2015-Jul-22 15:33N 39°48' W 075°26'0 0.0
2015-Jul-22 14:33N 39°48' W 075°26'0 0.0
2015-Jul-22 13:33N 39°48' W 075°26'0 0.0
2015-Jul-22 12:33N 39°48' W 075°26'0 0.0
2015-Jul-22 11:33N 39°48' W 075°26'1 0.7
2015-Jul-22 10:33N 39°48' W 075°25'2 2.1
2015-Jul-22 09:33N 39°49' W 075°23'1010.5
2015-Jul-22 08:34N 39°53' W 075°10'5 5.2
2015-Jul-22 07:33N 39°58' W 075°08'1 1.2
2015-Jul-22 06:33N 39°58' W 075°06'3 3.5
2015-Jul-22 05:33N 39°55' W 075°08'3 2.8
2015-Jul-22 04:33N 39°53' W 075°11'0 0.0
2015-Jul-22 03:33N 39°53' W 075°11'0 0.0
2015-Jul-22 02:34N 39°53' W 075°11'6 6.3
2015-Jul-22 01:33N 39°51' W 075°18'1010.3
2015-Jul-22 00:33N 39°45' W 075°29'1010.4
2015-Jul-21 23:33N 39°35' W 075°34'1 1.4
2015-Jul-21 22:34N 39°35' W 075°35'0 0.5
2015-Jul-21 21:34N 39°35' W 075°35'2 1.8
2015-Jul-21 20:34N 39°34' W 075°33'2 2.2
2015-Jul-21 19:34N 39°35' W 075°35'5 4.6
2015-Jul-21 18:34N 39°39' W 075°33'1110.7
2015-Jul-21 17:33N 39°48' W 075°25'9 9.0
2015-Jul-21 16:33N 39°51' W 075°14'3 3.5
2015-Jul-21 15:34N 39°53' W 075°11'0 0.0
2015-Jul-21 14:34N 39°53' W 075°11'0 0.0
2015-Jul-21 13:34N 39°53' W 075°11'2 2.1
2015-Jul-21 12:34N 39°52' W 075°13'0 0.2
2015-Jul-21 11:34N 39°52' W 075°13'1 1.3
2015-Jul-21 10:34N 39°53' W 075°12'4 3.9
2015-Jul-21 09:33N 39°55' W 075°08'2 1.9
2015-Jul-21 08:34N 39°57' W 075°08'8 8.5
2015-Jul-21 07:34N 39°51' W 075°15'1111.3
2015-Jul-21 06:33N 39°46' W 075°29'1111.2
2015-Jul-21 05:34N 39°35' W 075°34'1111.0
2015-Jul-21 04:33N 39°25' W 075°31'1211.5
2015-Jul-21 03:33N 39°16' W 075°21'  
Track history (hours):
 
Tides and Currents Weather Stations Pressure Air Temp Water Temp Dewpoint Dewpoint Depression Visibility Wind Speed Wind Dir Waves Ship Positions

Cape Cod

Owner: MORAN TOWING CORPORATION, New Canaan, CT. More information available from US FCC via Universal Licensing System and Coast Guard Vessel Documentation Center.

Last reported at 2015-Jul-31 02:34 UTC. Time now 2015-Jul-31 03:06 UTC.
Position N 39°54' W 075°08'.

Length 33 m; draft 4.8 m.

Type: Tug. MMSI: 366939770.

Date/timePositionNaut miles runAvg speedWind from/ knotsBaromVisibWave heightAir tempDewpointWater temp
2015-Jul-31 02:34N 39°54' W 075°08'2 2.0
2015-Jul-31 01:34N 39°53' W 075°10'0 0.2
2015-Jul-31 00:34N 39°53' W 075°11'0 0.0
2015-Jul-30 23:34N 39°53' W 075°11'0 0.0
2015-Jul-30 22:34N 39°53' W 075°11'0 0.0
2015-Jul-30 21:34N 39°53' W 075°11'0 0.0
2015-Jul-30 20:34N 39°53' W 075°11'0 0.0
2015-Jul-30 19:33N 39°53' W 075°11'0 0.0
2015-Jul-30 18:33N 39°53' W 075°11'0 0.0
2015-Jul-30 17:33N 39°53' W 075°11'0 0.0
2015-Jul-30 16:33N 39°53' W 075°11'0 0.0
2015-Jul-30 15:33N 39°53' W 075°11'1 0.8
2015-Jul-30 14:34N 39°54' W 075°11'0 0.0
2015-Jul-30 13:34N 39°54' W 075°11'0 0.0
2015-Jul-30 12:34N 39°54' W 075°12'1 0.8
2015-Jul-30 11:34N 39°53' W 075°11'0 0.0
2015-Jul-30 10:34N 39°53' W 075°11'0 0.0
2015-Jul-30 09:34N 39°53' W 075°11'0 0.0
2015-Jul-30 08:34N 39°53' W 075°11'0 0.0
2015-Jul-30 07:33N 39°53' W 075°11'0 0.0
2015-Jul-30 06:34N 39°53' W 075°11'0 0.0
2015-Jul-30 05:34N 39°53' W 075°11'1 1.0
2015-Jul-30 04:34N 39°53' W 075°09'2 1.6
2015-Jul-30 03:34N 39°53' W 075°11'1 0.7
2015-Jul-30 02:34N 39°53' W 075°11'0 0.0
2015-Jul-30 01:34N 39°53' W 075°11'2 2.4
2015-Jul-30 00:33N 39°54' W 075°08'2 2.4
2015-Jul-29 23:34N 39°53' W 075°11'0 0.0
2015-Jul-29 22:34N 39°53' W 075°11'0 0.0
2015-Jul-29 21:34N 39°53' W 075°11'0 0.0
2015-Jul-29 20:34N 39°53' W 075°11'0 0.0
2015-Jul-29 19:34N 39°53' W 075°11'0 0.0
2015-Jul-29 18:34N 39°53' W 075°11'2 2.2
2015-Jul-29 17:33N 39°54' W 075°08'4 4.2
2015-Jul-29 16:34N 39°58' W 075°07'3 3.4
2015-Jul-29 15:34N 39°55' W 075°08'10 9.8
2015-Jul-29 14:34N 39°51' W 075°20'1111.1
2015-Jul-29 13:33N 39°44' W 075°30'1010.2
2015-Jul-29 12:34N 39°33' W 075°33'1010.0
2015-Jul-29 11:34N 39°24' W 075°29'3210.4
2015-Jul-29 08:28N 38°57' W 075°06'6 6.5
2015-Jul-29 07:33N 39°02' W 075°10'1414.3
2015-Jul-29 06:33N 39°15' W 075°19'1615.9
2015-Jul-29 05:33N 39°27' W 075°33'1313.5
2015-Jul-29 04:33N 39°40' W 075°32'1211.8
2015-Jul-29 03:33N 39°49' W 075°23'1010.1
2015-Jul-29 02:33N 39°53' W 075°11'0 0.0
2015-Jul-29 01:33N 39°53' W 075°11'0 0.0
2015-Jul-29 00:33N 39°53' W 075°11'0 0.0
2015-Jul-28 23:33N 39°53' W 075°11'0 0.3
2015-Jul-28 22:33N 39°53' W 075°11'0 0.3
2015-Jul-28 21:33N 39°53' W 075°11'0 0.0
2015-Jul-28 20:33N 39°53' W 075°11'0 0.0
2015-Jul-28 19:33N 39°53' W 075°11'0 0.0
2015-Jul-28 18:33N 39°53' W 075°11'0 0.0
2015-Jul-28 17:33N 39°53' W 075°11'0 0.0
2015-Jul-28 16:33N 39°53' W 075°11'0 0.0
2015-Jul-28 15:33N 39°53' W 075°11'0 0.0
2015-Jul-28 14:33N 39°53' W 075°11'0 0.0
2015-Jul-28 13:33N 39°53' W 075°11'0 0.0
2015-Jul-28 12:33N 39°53' W 075°11'0 0.2
2015-Jul-28 11:33N 39°53' W 075°11'0 0.2
2015-Jul-28 10:33N 39°53' W 075°11'0 0.0
2015-Jul-28 09:33N 39°53' W 075°11'2 1.8
2015-Jul-28 08:33N 39°52' W 075°13'4 3.5
2015-Jul-28 07:33N 39°53' W 075°08'2 1.8
2015-Jul-28 06:33N 39°53' W 075°11'0 0.0
2015-Jul-28 05:33N 39°53' W 075°11'0 0.0
2015-Jul-28 04:33N 39°53' W 075°11'0 0.0
2015-Jul-28 03:33N 39°53' W 075°11'0 0.0
2015-Jul-28 02:33N 39°53' W 075°11'0 0.0
2015-Jul-28 01:33N 39°53' W 075°11'0 0.0
2015-Jul-28 00:33N 39°53' W 075°11'0 0.0
2015-Jul-27 23:33N 39°53' W 075°11'0 0.0
2015-Jul-27 22:33N 39°53' W 075°11'0 0.0
2015-Jul-27 21:33N 39°53' W 075°11'0 0.0
2015-Jul-27 20:33N 39°53' W 075°11'0 0.0
2015-Jul-27 19:33N 39°53' W 075°11'0 0.0
2015-Jul-27 18:33N 39°53' W 075°11'0 0.0
2015-Jul-27 17:33N 39°53' W 075°11'0 0.0
2015-Jul-27 16:33N 39°53' W 075°11'0 0.0
2015-Jul-27 15:33N 39°53' W 075°11'0 0.0
2015-Jul-27 14:33N 39°53' W 075°11'0 0.0
2015-Jul-27 13:33N 39°53' W 075°11'1 0.8
2015-Jul-27 12:33N 39°54' W 075°12'1 0.8
2015-Jul-27 11:33N 39°53' W 075°11'0 0.0
2015-Jul-27 10:33N 39°53' W 075°11'3 3.3
2015-Jul-27 09:33N 39°51' W 075°14'1110.6
2015-Jul-27 08:33N 39°47' W 075°27'1111.4
2015-Jul-27 07:33N 39°38' W 075°35'1111.1
2015-Jul-27 06:33N 39°27' W 075°33'1111.1
2015-Jul-27 05:33N 39°18' W 075°23'1111.3
2015-Jul-27 04:33N 39°09' W 075°15'4 3.6
2015-Jul-27 03:31N 39°06' W 075°12'1110.9
2015-Jul-27 02:33N 39°15' W 075°19'1010.3
2015-Jul-27 01:33N 39°23' W 075°28'8 8.3
2015-Jul-27 00:33N 39°30' W 075°34'8 7.5
2015-Jul-26 23:33N 39°37' W 075°35'7 7.3
2015-Jul-26 22:33N 39°44' W 075°30'7 7.5
2015-Jul-26 21:33N 39°49' W 075°23'8 8.4
2015-Jul-26 20:33N 39°52' W 075°13'8 8.3
2015-Jul-26 19:33N 39°58' W 075°06'0 0.4
2015-Jul-26 18:33N 39°58' W 075°07'2 2.3
2015-Jul-26 17:33N 39°56' W 075°08'3 3.5
2015-Jul-26 16:33N 39°53' W 075°11'0 0.0
2015-Jul-26 15:33N 39°53' W 075°11'0 0.0
2015-Jul-26 14:33N 39°53' W 075°11'0 0.0
2015-Jul-26 13:33N 39°53' W 075°11'0 0.0
2015-Jul-26 12:33N 39°53' W 075°11'0 0.0
2015-Jul-26 11:33N 39°53' W 075°11'0 0.0
2015-Jul-26 10:33N 39°53' W 075°11'0 0.0
2015-Jul-26 09:33N 39°53' W 075°11'0 0.0
2015-Jul-26 08:33N 39°53' W 075°11'0 0.0
2015-Jul-26 07:33N 39°53' W 075°11'0 0.0
2015-Jul-26 06:33N 39°53' W 075°11'0 0.0
2015-Jul-26 05:33N 39°53' W 075°11'8 7.8
2015-Jul-26 04:33N 39°51' W 075°20'4 4.4
2015-Jul-26 03:33N 39°48' W 075°25'4 4.2
2015-Jul-26 02:33N 39°51' W 075°21'8 8.0
2015-Jul-26 01:33N 39°53' W 075°11'0 0.0
2015-Jul-26 00:33N 39°53' W 075°11'0 0.0
2015-Jul-25 23:33N 39°53' W 075°11'0 0.0
2015-Jul-25 22:33N 39°53' W 075°11'1 1.3
2015-Jul-25 21:33N 39°53' W 075°09'5 5.3
2015-Jul-25 20:33N 39°58' W 075°07'3 2.5
2015-Jul-25 19:33N 39°56' W 075°08'7 6.7
2015-Jul-25 18:33N 39°51' W 075°15'7 7.4
2015-Jul-25 17:33N 39°49' W 075°24'7 7.4
2015-Jul-25 16:33N 39°43' W 075°30'7 7.2
2015-Jul-25 15:33N 39°37' W 075°35'7 6.8
2015-Jul-25 14:33N 39°30' W 075°33'7 6.8
2015-Jul-25 13:33N 39°24' W 075°30'8 7.6
2015-Jul-25 12:32N 39°18' W 075°23'8 8.3
2015-Jul-25 11:32N 39°12' W 075°17'18 8.8
2015-Jul-25 09:32N 38°56' W 075°06'8 7.8
2015-Jul-25 08:33N 39°03' W 075°10'1312.6
2015-Jul-25 07:33N 39°14' W 075°18'1312.6
2015-Jul-25 06:33N 39°23' W 075°29'1312.7
2015-Jul-25 05:33N 39°36' W 075°34'1413.9
2015-Jul-25 04:33N 39°48' W 075°26'1312.6
2015-Jul-25 03:33N 39°53' W 075°11'0 0.0
2015-Jul-25 02:33N 39°53' W 075°11'2 2.1
2015-Jul-25 01:33N 39°54' W 075°08'0 0.4
2015-Jul-25 00:34N 39°54' W 075°08'2 1.9
2015-Jul-24 23:34N 39°56' W 075°08'7 7.3
2015-Jul-24 22:33N 39°51' W 075°15'1 0.6
2015-Jul-24 21:33N 39°51' W 075°16'5 4.6
2015-Jul-24 20:33N 39°53' W 075°11'0 0.0
2015-Jul-24 19:33N 39°53' W 075°11'0 0.0
2015-Jul-24 18:33N 39°53' W 075°11'0 0.0
2015-Jul-24 17:33N 39°53' W 075°11'0 0.0
2015-Jul-24 16:33N 39°53' W 075°11'0 0.0
2015-Jul-24 15:33N 39°53' W 075°11'0 0.0
2015-Jul-24 14:33N 39°53' W 075°11'3 3.2
2015-Jul-24 13:33N 39°56' W 075°08'2 1.7
2015-Jul-24 12:33N 39°54' W 075°08'2 2.2
2015-Jul-24 11:33N 39°53' W 075°11'0 0.0
2015-Jul-24 10:33N 39°53' W 075°11'0 0.0
2015-Jul-24 09:33N 39°53' W 075°11'0 0.0
2015-Jul-24 08:33N 39°53' W 075°11'0 0.0
2015-Jul-24 07:33N 39°53' W 075°11'0 0.0
2015-Jul-24 06:33N 39°53' W 075°11'0 0.0
2015-Jul-24 05:33N 39°53' W 075°11'0 0.0
2015-Jul-24 04:33N 39°53' W 075°11'0 0.0
2015-Jul-24 03:33N 39°53' W 075°11'3 2.7
2015-Jul-24 02:33N 39°55' W 075°08'0 0.0
2015-Jul-24 01:33N 39°55' W 075°08'0 0.0
2015-Jul-24 00:33N 39°55' W 075°08'0 0.0
2015-Jul-23 23:34N 39°55' W 075°08'1 0.9
2015-Jul-23 22:34N 39°54' W 075°08'2 2.3
2015-Jul-23 21:33N 39°53' W 075°11'0 0.2
2015-Jul-23 20:33N 39°53' W 075°11'0 0.0
2015-Jul-23 19:33N 39°53' W 075°11'4 4.4
2015-Jul-23 18:33N 39°51' W 075°16'1211.8
2015-Jul-23 17:33N 39°45' W 075°29'1211.6
2015-Jul-23 16:33N 39°34' W 075°33'1111.4
2015-Jul-23 15:33N 39°23' W 075°29'1212.3
2015-Jul-23 14:33N 39°14' W 075°18'5 5.5
2015-Jul-23 13:33N 39°09' W 075°15'1111.4
2015-Jul-23 12:33N 39°18' W 075°23'1111.4
2015-Jul-23 11:33N 39°27' W 075°33'1010.2
2015-Jul-23 10:33N 39°37' W 075°35'9 9.0
2015-Jul-23 09:33N 39°45' W 075°29'8 8.1
2015-Jul-23 08:33N 39°50' W 075°21'8 7.8
2015-Jul-23 07:33N 39°53' W 075°12'7 6.8
2015-Jul-23 06:33N 39°58' W 075°07'1 0.7
2015-Jul-23 05:33N 39°59' W 075°06'0 0.0
2015-Jul-23 04:33N 39°59' W 075°06'0 0.0
2015-Jul-23 03:33N 39°59' W 075°06'0 0.0
2015-Jul-23 02:33N 39°59' W 075°06'0 0.0
2015-Jul-23 01:33N 39°59' W 075°06'5 4.6
2015-Jul-23 00:33N 39°54' W 075°08'2 2.0
2015-Jul-22 23:33N 39°53' W 075°10'2 2.0
2015-Jul-22 22:33N 39°54' W 075°12'0 0.0
2015-Jul-22 21:33N 39°54' W 075°12'6 5.9
2015-Jul-22 20:34N 39°51' W 075°19'6 5.5
2015-Jul-22 19:33N 39°48' W 075°25'0 0.5
2015-Jul-22 18:33N 39°48' W 075°26'0 0.0
2015-Jul-22 17:33N 39°48' W 075°26'0 0.0
2015-Jul-22 16:33N 39°48' W 075°26'0 0.0
2015-Jul-22 15:33N 39°48' W 075°26'0 0.0
2015-Jul-22 14:33N 39°48' W 075°26'0 0.0
2015-Jul-22 13:33N 39°48' W 075°26'0 0.0
2015-Jul-22 12:33N 39°48' W 075°26'0 0.0
2015-Jul-22 11:33N 39°48' W 075°26'1 0.7
2015-Jul-22 10:33N 39°48' W 075°25'2 2.1
2015-Jul-22 09:33N 39°49' W 075°23'1010.5
2015-Jul-22 08:34N 39°53' W 075°10'5 5.2
2015-Jul-22 07:33N 39°58' W 075°08'1 1.2
2015-Jul-22 06:33N 39°58' W 075°06'3 3.5
2015-Jul-22 05:33N 39°55' W 075°08'3 2.8
2015-Jul-22 04:33N 39°53' W 075°11'0 0.0
2015-Jul-22 03:33N 39°53' W 075°11'0 0.0
2015-Jul-22 02:34N 39°53' W 075°11'6 6.3
2015-Jul-22 01:33N 39°51' W 075°18'1010.3
2015-Jul-22 00:33N 39°45' W 075°29'1010.4
2015-Jul-21 23:33N 39°35' W 075°34'1 1.4
2015-Jul-21 22:34N 39°35' W 075°35'0 0.5
2015-Jul-21 21:34N 39°35' W 075°35'2 1.8
2015-Jul-21 20:34N 39°34' W 075°33'2 2.2
2015-Jul-21 19:34N 39°35' W 075°35'5 4.6
2015-Jul-21 18:34N 39°39' W 075°33'1110.7
2015-Jul-21 17:33N 39°48' W 075°25'9 9.0
2015-Jul-21 16:33N 39°51' W 075°14'3 3.5
2015-Jul-21 15:34N 39°53' W 075°11'0 0.0
2015-Jul-21 14:34N 39°53' W 075°11'0 0.0
2015-Jul-21 13:34N 39°53' W 075°11'2 2.1
2015-Jul-21 12:34N 39°52' W 075°13'0 0.2
2015-Jul-21 11:34N 39°52' W 075°13'1 1.3
2015-Jul-21 10:34N 39°53' W 075°12'4 3.9
2015-Jul-21 09:33N 39°55' W 075°08'2 1.9
2015-Jul-21 08:34N 39°57' W 075°08'8 8.5
2015-Jul-21 07:34N 39°51' W 075°15'1111.3
2015-Jul-21 06:33N 39°46' W 075°29'1111.2
2015-Jul-21 05:34N 39°35' W 075°34'1111.0
2015-Jul-21 04:33N 39°25' W 075°31'1211.5
2015-Jul-21 03:33N 39°16' W 075°21'  

Dump ship's entire track history